Time;durP1;ratioP1;P1;durP2;ratioP2;P2;SDS_P1;SDS_P2;PMS_P1;PMS_P2;Temp;Humidity;BMP_temperature;BMP_pressure;BME280_temperature;BME280_humidity;BME280_pressure;Samples;Min_cycle;Max_cycle;Signal;HPM_P1;HPM_P2
2022/10/16 00:01:20;;;;;;;4.32;2.50;;;;;;;16.78;85.17;100410.41;4187975;28;20132;-63
2022/10/16 00:03:24;;;;;;;4.97;1.95;;;;;;;16.77;85.29;100412.19;4186397;28;20478;-62
2022/10/16 00:05:32;;;;;;;2.42;1.67;;;;;;;16.77;85.25;100411.31;4192627;28;20040;-63
2022/10/16 00:07:35;;;;;;;3.60;1.88;;;;;;;16.78;85.28;100402.53;4187762;28;20086;-63
2022/10/16 00:09:38;;;;;;;2.85;2.00;;;;;;;16.77;85.23;100404.31;4184289;28;20107;-63
2022/10/16 00:11:42;;;;;;;3.05;2.03;;;;;;;16.76;85.17;100397.31;4185437;28;20036;-62
2022/10/16 00:13:47;;;;;;;6.32;2.00;;;;;;;16.77;85.24;100396.44;4189235;28;20124;-62
2022/10/16 00:15:50;;;;;;;5.22;1.83;;;;;;;16.78;85.07;100389.41;4189288;28;20075;-62
2022/10/16 00:17:52;;;;;;;4.65;1.90;;;;;;;16.75;84.99;100377.22;4189251;28;20239;-62
2022/10/16 00:19:57;;;;;;;4.40;1.73;;;;;;;16.71;85.11;100389.50;4187623;28;20039;-62
2022/10/16 00:21:59;;;;;;;1.60;1.50;;;;;;;16.69;85.13;100391.28;4192186;28;20071;-62
2022/10/16 00:24:05;;;;;;;2.78;2.03;;;;;;;16.70;85.19;100403.50;4182297;28;20033;-62
2022/10/16 00:26:11;;;;;;;6.50;2.30;;;;;;;16.70;85.27;100418.38;4186092;28;20033;-62
2022/10/16 00:28:15;;;;;;;7.25;2.35;;;;;;;16.69;85.29;100399.16;4188630;28;20502;-62
2022/10/16 00:30:18;;;;;;;6.65;1.98;;;;;;;16.70;85.34;100403.50;4192572;28;20037;-63
2022/10/16 00:32:21;;;;;;;2.45;1.70;;;;;;;16.72;84.91;100406.13;4185841;28;20064;-63
2022/10/16 00:34:23;;;;;;;6.43;2.05;;;;;;;16.72;84.71;100414.88;4192477;28;20094;-62
2022/10/16 00:36:28;;;;;;;6.85;1.75;;;;;;;16.71;84.81;100418.38;4188269;28;20033;-62
2022/10/16 00:38:31;;;;;;;3.60;1.70;;;;;;;16.70;84.83;100410.50;4189794;28;20036;-63
2022/10/16 00:40:33;;;;;;;5.18;1.98;;;;;;;16.69;84.87;100419.25;4188718;28;20123;-62
2022/10/16 00:42:36;;;;;;;3.42;2.25;;;;;;;16.68;84.70;100421.03;4188053;28;20532;-63
2022/10/16 00:44:46;;;;;;;5.75;2.05;;;;;;;16.66;84.84;100430.69;4189433;28;20045;-63
2022/10/16 00:46:51;;;;;;;3.25;1.75;;;;;;;16.63;85.03;100432.47;4188112;28;20411;-62
2022/10/16 00:49:00;;;;;;;4.43;1.83;;;;;;;16.63;85.00;100428.09;4188197;28;20565;-62
2022/10/16 00:51:03;;;;;;;8.75;2.25;;;;;;;16.61;85.35;100429.88;4184656;28;20091;-62
2022/10/16 00:53:07;;;;;;;7.25;2.53;;;;;;;16.69;85.07;100427.13;4194138;28;20052;-63
2022/10/16 00:55:10;;;;;;;3.15;1.63;;;;;;;16.66;84.86;100425.44;4190220;28;20072;-63
2022/10/16 00:57:13;;;;;;;4.15;2.30;;;;;;;16.65;85.03;100421.06;4188289;28;20064;-62
2022/10/16 00:59:26;;;;;;;7.63;2.20;;;;;;;16.65;85.02;100421.06;4184853;28;20033;-63
2022/10/16 01:01:29;;;;;;;4.00;2.00;;;;;;;16.65;85.15;100415.81;4186209;28;20494;-63
2022/10/16 01:03:34;;;;;;;7.97;2.33;;;;;;;16.64;84.94;100419.31;4191297;28;20075;-63
2022/10/16 01:05:45;;;;;;;5.28;1.73;;;;;;;16.65;84.98;100422.84;4183021;28;20142;-63
2022/10/16 01:07:57;;;;;;;3.15;1.58;;;;;;;16.64;85.13;100427.19;4192794;28;20508;-63
2022/10/16 01:10:10;;;;;;;5.18;1.52;;;;;;;16.65;85.10;100426.31;4190281;28;20127;-62
2022/10/16 01:12:18;;;;;;;3.90;1.80;;;;;;;16.67;84.77;100421.91;4183760;28;20067;-62
2022/10/16 01:14:27;;;;;;;4.93;1.92;;;;;;;16.66;85.08;100421.94;4187231;28;20041;-63
2022/10/16 01:16:35;;;;;;;3.40;1.75;;;;;;;16.65;85.10;100433.34;4204284;28;20452;-62
2022/10/16 01:18:43;;;;;;;6.60;1.90;;;;;;;16.63;85.04;100438.59;4187966;28;20453;-62
2022/10/16 01:20:50;;;;;;;3.83;2.03;;;;;;;16.60;85.33;100445.63;4191374;28;20032;-62
2022/10/16 01:23:11;;;;;;;3.33;1.98;;;;;;;16.54;85.56;100450.06;4182183;28;20059;-62
2022/10/16 01:25:26;;;;;;;4.55;1.75;;;;;;;16.57;85.50;100436.03;4190245;28;20047;-62
2022/10/16 01:27:35;;;;;;;7.05;1.88;;;;;;;16.59;85.60;100431.66;4193060;28;20048;-62
2022/10/16 01:29:44;;;;;;;4.47;2.10;;;;;;;16.62;85.38;100428.97;4193495;28;20041;-62
2022/10/16 01:31:55;;;;;;;2.08;1.50;;;;;;;16.64;85.47;100437.69;4187357;28;20046;-62
2022/10/16 01:34:03;;;;;;;4.28;2.20;;;;;;;16.65;85.15;100430.72;4191281;28;20494;-62
2022/10/16 01:36:13;;;;;;;3.75;1.88;;;;;;;16.63;85.22;100437.72;4188576;28;20032;-62
2022/10/16 01:38:19;;;;;;;4.53;2.03;;;;;;;16.56;85.48;100435.16;4189243;28;20040;-62
2022/10/16 01:40:26;;;;;;;4.38;1.92;;;;;;;16.46;85.74;100441.41;4187375;28;20033;-62
2022/10/16 01:42:37;;;;;;;3.35;1.80;;;;;;;16.51;85.80;100454.47;4187633;28;20094;-62
2022/10/16 01:44:42;;;;;;;2.20;1.90;;;;;;;16.53;85.84;100452.72;4201494;28;20036;-62
2022/10/16 01:46:46;;;;;;;;;;;;;;;16.42;85.87;100449.31;4187129;28;20044;-63
2022/10/16 01:48:51;;;;;;;4.32;1.83;;;;;;;16.49;85.93;100456.25;4185892;28;19970;-63
2022/10/16 01:50:59;;;;;;;3.97;1.88;;;;;;;16.54;85.65;100451.81;4185646;28;20040;-64
2022/10/16 01:53:04;;;;;;;3.35;1.92;;;;;;;16.57;85.68;100454.41;4189236;28;20044;-64
2022/10/16 01:55:11;;;;;;;3.25;1.80;;;;;;;16.58;85.62;100446.50;4188496;28;20076;-64
2022/10/16 01:57:16;;;;;;;2.65;1.67;;;;;;;16.61;85.31;100445.59;4189538;28;20040;-63
2022/10/16 01:59:26;;;;;;;4.28;2.22;;;;;;;16.62;85.17;100444.72;4182521;28;20029;-64
2022/10/16 02:01:34;;;;;;;4.50;2.40;;;;;;;16.61;85.10;100448.22;4187119;28;20247;-63
2022/10/16 02:03:41;;;;;;;3.15;1.77;;;;;;;16.60;85.10;100437.75;4184997;28;20040;-64
2022/10/16 02:05:47;;;;;;;3.30;1.85;;;;;;;16.62;84.70;100435.97;4189276;28;20044;-63
2022/10/16 02:07:50;;;;;;;2.25;1.90;;;;;;;16.59;85.07;100436.91;4193739;28;20089;-64
2022/10/16 02:09:53;;;;;;;5.97;2.05;;;;;;;16.57;84.99;100439.53;4190600;28;20033;-63
2022/10/16 02:12:02;;;;;;;3.10;2.10;;;;;;;16.58;84.93;100443.03;4185928;28;20086;-63
2022/10/16 02:14:06;;;;;;;4.97;1.90;;;;;;;16.58;85.11;100437.78;4189882;28;20106;-63
2022/10/16 02:16:11;;;;;;;2.90;1.70;;;;;;;16.60;85.18;100443.84;4188690;28;20514;-63
2022/10/16 02:18:15;;;;;;;5.70;2.10;;;;;;;16.56;84.77;100437.78;4175290;28;20589;-63
2022/10/16 02:20:23;;;;;;;3.55;1.85;;;;;;;16.55;85.14;100436.03;4187814;28;20033;-64
2022/10/16 02:22:30;;;;;;;3.47;1.88;;;;;;;16.55;84.97;100445.69;4181146;28;20033;-63
2022/10/16 02:24:39;;;;;;;1.83;1.60;;;;;;;16.58;84.88;100440.41;4184212;28;20111;-63
2022/10/16 02:26:46;;;;;;;5.70;1.95;;;;;;;16.55;84.97;100441.28;4183107;28;20052;-64
2022/10/16 02:28:56;;;;;;;3.25;2.10;;;;;;;16.62;84.65;100439.47;4189846;28;20048;-64
2022/10/16 02:31:02;;;;;;;3.85;1.90;;;;;;;16.58;84.73;100438.63;4188415;28;20095;-64
2022/10/16 02:33:10;;;;;;;3.17;1.80;;;;;;;16.56;84.87;100440.41;4188073;28;20044;-63
2022/10/16 02:35:14;;;;;;;3.40;2.10;;;;;;;16.61;84.82;100432.50;4183331;28;20084;-63
2022/10/16 02:37:18;;;;;;;2.38;1.60;;;;;;;16.58;84.86;100441.25;4188543;28;20067;-63
2022/10/16 02:39:21;;;;;;;;;;;;;;;16.44;85.25;100437.03;4186752;28;20486;-64
2022/10/16 02:41:24;;;;;;;4.68;2.50;;;;;;;16.48;85.30;100431.75;4193754;28;20404;-63
2022/10/16 02:43:27;;;;;;;3.30;1.75;;;;;;;16.53;85.16;100427.34;4188333;28;20040;-63
2022/10/16 02:45:30;;;;;;;2.78;1.58;;;;;;;16.56;84.98;100431.69;4192766;28;20378;-64
2022/10/16 02:47:33;;;;;;;2.70;1.65;;;;;;;16.56;84.97;100435.16;4185331;28;20041;-63
2022/10/16 02:49:37;;;;;;;3.88;1.77;;;;;;;16.55;84.83;100437.81;4193160;28;20028;-63
2022/10/16 02:51:40;;;;;;;2.53;1.88;;;;;;;16.55;84.89;100445.69;4185820;28;20086;-64
2022/10/16 02:53:43;;;;;;;5.03;1.90;;;;;;;16.54;85.15;100444.81;4187000;28;20102;-63
2022/10/16 02:55:45;;;;;;;4.65;1.50;;;;;;;16.55;84.98;100445.69;4189281;28;20048;-63
2022/10/16 02:57:48;;;;;;;2.17;1.35;;;;;;;16.53;85.17;100456.19;4188006;28;20044;-63
2022/10/16 02:59:51;;;;;;;3.58;1.80;;;;;;;16.53;85.31;100466.69;4178819;28;20498;-63
2022/10/16 03:01:54;;;;;;;4.82;1.88;;;;;;;16.55;85.28;100464.06;4192803;28;20067;-63
2022/10/16 03:03:59;;;;;;;3.40;1.58;;;;;;;16.56;84.94;100456.16;4184785;28;20412;-63
2022/10/16 03:06:04;;;;;;;2.08;1.50;;;;;;;16.57;85.08;100451.78;4188471;28;20040;-63
2022/10/16 03:08:06;;;;;;;7.35;2.08;;;;;;;16.58;85.13;100449.13;4191321;28;20036;-63
2022/10/16 03:10:10;;;;;;;5.78;1.77;;;;;;;16.61;84.40;100442.97;4189374;28;20502;-63
2022/10/16 03:12:13;;;;;;;3.42;2.08;;;;;;;16.58;84.66;100448.28;4169526;28;20045;-63
2022/10/16 03:14:15;;;;;;;3.63;2.10;;;;;;;16.56;84.74;100443.03;4182153;28;20572;-64
2022/10/16 03:16:18;;;;;;;4.38;1.90;;;;;;;16.60;84.84;100453.50;4177264;28;20048;-63
2022/10/16 03:18:21;;;;;;;5.03;1.85;;;;;;;16.58;84.71;100440.41;4181172;28;20044;-63
2022/10/16 03:20:24;;;;;;;2.20;2.00;;;;;;;16.57;84.71;100442.16;4189367;28;20036;-63
2022/10/16 03:22:28;;;;;;;3.88;1.90;;;;;;;16.61;84.31;100450.84;4183039;28;20061;-63
2022/10/16 03:24:31;;;;;;;3.45;1.70;;;;;;;16.60;84.49;100456.13;4186463;28;20036;-63
2022/10/16 03:26:34;;;;;;;2.88;2.17;;;;;;;16.57;84.57;100452.66;4190280;28;20269;-63
2022/10/16 03:28:36;;;;;;;8.02;3.25;;;;;;;16.64;84.23;100442.94;4186266;28;20041;-63
2022/10/16 03:30:40;;;;;;;6.13;2.80;;;;;;;16.64;83.68;100449.97;4187441;28;20037;-63
2022/10/16 03:32:44;;;;;;;3.85;2.00;;;;;;;16.53;84.24;100452.72;4190715;28;20044;-63
2022/10/16 03:34:47;;;;;;;3.03;2.50;;;;;;;16.48;84.67;100444.88;4184838;28;20090;-63
2022/10/16 03:36:50;;;;;;;10.00;2.65;;;;;;;16.54;84.41;100446.56;4186289;28;20043;-63
2022/10/16 03:38:54;;;;;;;3.85;2.28;;;;;;;16.49;84.61;100443.13;4189874;28;20101;-63
2022/10/16 03:40:56;;;;;;;5.72;2.63;;;;;;;16.47;84.94;100443.16;4188695;28;20035;-63
2022/10/16 03:42:59;;;;;;;3.47;2.05;;;;;;;16.46;84.92;100453.66;4188926;28;20040;-63
2022/10/16 03:45:02;;;;;;;3.80;1.73;;;;;;;16.45;85.05;100455.41;4187614;28;20101;-63
2022/10/16 03:47:05;;;;;;;6.00;2.20;;;;;;;16.48;84.98;100462.38;4190971;28;20028;-63
2022/10/16 03:49:08;;;;;;;2.67;1.88;;;;;;;16.47;85.12;100458.00;4187293;28;20387;-63
2022/10/16 03:51:11;;;;;;;3.42;2.10;;;;;;;16.49;85.07;100462.34;4186990;28;20071;-63
2022/10/16 03:53:14;;;;;;;3.47;1.90;;;;;;;16.49;85.21;100464.13;4188791;28;20033;-63
2022/10/16 03:55:18;;;;;;;3.90;2.13;;;;;;;16.54;85.14;100470.19;4190468;28;20522;-63
2022/10/16 03:57:21;;;;;;;4.25;1.98;;;;;;;16.50;85.05;100468.47;4197844;28;20033;-63
2022/10/16 03:59:24;;;;;;;6.28;2.42;;;;;;;16.50;84.79;100466.72;4189331;28;20044;-63
2022/10/16 04:01:27;;;;;;;4.28;2.13;;;;;;;16.51;85.03;100472.84;4189581;28;20123;-64
2022/10/16 04:03:29;;;;;;;5.72;2.30;;;;;;;16.52;85.16;100479.84;4187831;28;20048;-63
2022/10/16 04:05:32;;;;;;;3.13;2.22;;;;;;;16.51;85.30;100471.06;4188702;28;20497;-63
2022/10/16 04:07:35;;;;;;;4.80;2.40;;;;;;;16.52;85.05;100471.97;4193057;28;20070;-63
2022/10/16 04:09:38;;;;;;;8.05;2.70;;;;;;;16.50;85.08;100473.72;4184437;28;20048;-63
2022/10/16 04:11:42;;;;;;;10.18;2.67;;;;;;;16.51;84.90;100475.47;4193848;28;20040;-63
2022/10/16 04:13:45;;;;;;;3.15;2.30;;;;;;;16.47;85.00;100479.88;4192966;28;20041;-64
2022/10/16 04:15:48;;;;;;;6.15;2.47;;;;;;;16.47;85.09;100472.00;4190075;28;20070;-63
2022/10/16 04:17:50;;;;;;;4.70;2.50;;;;;;;16.50;84.96;100482.47;4187764;28;20037;-64
2022/10/16 04:19:53;;;;;;;5.15;2.65;;;;;;;16.49;84.98;100487.75;4190002;28;20040;-63
2022/10/16 04:21:56;;;;;;;5.13;2.35;;;;;;;16.48;85.06;100494.72;4190367;28;20093;-63
2022/10/16 04:23:59;;;;;;;4.85;2.17;;;;;;;16.47;85.28;100497.38;4189875;28;20059;-63
2022/10/16 04:26:01;;;;;;;4.82;2.28;;;;;;;16.48;85.31;100501.75;4191317;28;20032;-63
2022/10/16 04:28:06;;;;;;;5.40;2.38;;;;;;;16.47;85.09;100498.25;4189609;28;20368;-63
2022/10/16 04:30:09;;;;;;;4.30;2.17;;;;;;;16.45;85.15;100494.75;4187155;28;20291;-64
2022/10/16 04:32:12;;;;;;;8.38;2.83;;;;;;;16.44;85.30;100489.53;4189195;28;20029;-63
2022/10/16 04:34:15;;;;;;;3.95;2.13;;;;;;;16.44;85.23;100479.03;4187347;28;20135;-63
2022/10/16 04:36:17;;;;;;;3.25;2.03;;;;;;;16.42;85.11;100488.69;4192902;28;20037;-63
2022/10/16 04:38:20;;;;;;;4.05;2.15;;;;;;;16.40;85.26;100497.44;4191905;28;20045;-64
2022/10/16 04:40:23;;;;;;;5.40;2.35;;;;;;;16.39;85.29;100492.19;4178029;28;20041;-63
2022/10/16 04:42:26;;;;;;;3.80;2.30;;;;;;;16.38;85.14;100491.34;4188712;28;20048;-63
2022/10/16 04:44:30;;;;;;;2.42;2.10;;;;;;;16.42;84.97;100492.16;4188930;28;20529;-63
2022/10/16 04:46:32;;;;;;;3.20;2.35;;;;;;;16.43;84.85;100477.28;4187082;28;20479;-63
2022/10/16 04:48:35;;;;;;;6.43;2.85;;;;;;;16.41;84.83;100477.28;4189799;28;20132;-64
2022/10/16 04:50:38;;;;;;;6.65;2.58;;;;;;;16.45;84.58;100472.91;4187318;28;20083;-63
2022/10/16 04:52:41;;;;;;;3.65;2.50;;;;;;;16.40;84.36;100471.19;4188248;28;20045;-63
2022/10/16 04:54:45;;;;;;;4.72;2.10;;;;;;;16.37;84.66;100483.50;4189292;28;20037;-64
2022/10/16 04:56:50;;;;;;;3.70;2.47;;;;;;;16.36;84.67;100479.13;4188437;28;20078;-64
2022/10/16 04:58:53;;;;;;;7.15;3.15;;;;;;;16.36;84.61;100466.84;4190023;28;20043;-64
2022/10/16 05:00:57;;;;;;;4.30;2.30;;;;;;;16.37;84.61;100468.59;4187208;28;20091;-63
2022/10/16 05:03:00;;;;;;;4.38;3.13;;;;;;;16.35;84.60;100465.13;4187153;28;20560;-64
2022/10/16 05:05:04;;;;;;;4.78;2.80;;;;;;;16.30;84.75;100480.03;4188877;28;20044;-64
2022/10/16 05:07:06;;;;;;;4.70;2.17;;;;;;;16.23;85.31;100480.97;4188262;28;20573;-63
2022/10/16 05:09:10;;;;;;;7.00;2.90;;;;;;;16.26;85.15;100490.56;4184046;28;20094;-64
2022/10/16 05:11:13;;;;;;;4.15;2.58;;;;;;;16.27;85.10;100482.69;4185401;28;20033;-63
2022/10/16 05:13:16;;;;;;;6.22;2.50;;;;;;;16.34;84.64;100476.50;4184475;28;20061;-63
2022/10/16 05:15:18;;;;;;;7.65;2.75;;;;;;;16.31;84.56;100479.16;4189052;28;20029;-63
2022/10/16 05:17:22;;;;;;;5.53;2.63;;;;;;;16.37;84.40;100475.63;4189765;28;20502;-64
2022/10/16 05:19:26;;;;;;;;;;;;;;;16.22;84.54;100485.34;4185488;28;20037;-63
2022/10/16 05:21:30;;;;;;;5.60;2.63;;;;;;;16.21;84.76;100477.50;4186350;28;19924;-63
2022/10/16 05:23:33;;;;;;;6.45;3.35;;;;;;;16.23;84.93;100473.97;4192400;28;20413;-63
2022/10/16 05:25:35;;;;;;;5.82;2.92;;;;;;;16.29;84.64;100462.53;4184131;28;20048;-64
2022/10/16 05:27:38;;;;;;;3.08;2.42;;;;;;;16.25;84.73;100458.19;4186074;28;20040;-64
2022/10/16 05:29:41;;;;;;;4.70;2.72;;;;;;;16.25;84.70;100462.59;4195045;28;20109;-63
2022/10/16 05:31:44;;;;;;;4.25;2.53;;;;;;;16.23;84.99;100473.09;4191087;28;20119;-64
2022/10/16 05:33:48;;;;;;;2.67;2.20;;;;;;;16.24;84.91;100474.84;4187874;28;20482;-63
2022/10/16 05:35:56;;;;;;;3.38;2.40;;;;;;;16.30;84.63;100466.91;4193365;28;20037;-64
2022/10/16 05:37:58;;;;;;;9.48;3.42;;;;;;;16.30;84.56;100456.41;4188049;28;20495;-64
2022/10/16 05:40:03;;;;;;;7.38;3.35;;;;;;;16.35;84.00;100454.63;4188164;28;20044;-64
2022/10/16 05:42:06;;;;;;;6.75;3.25;;;;;;;16.35;84.16;100467.75;4187020;28;20078;-64
2022/10/16 05:44:09;;;;;;;4.82;2.60;;;;;;;16.26;84.57;100475.69;4182259;28;20131;-64
2022/10/16 05:46:12;;;;;;;6.57;3.13;;;;;;;16.22;84.96;100501.09;4185474;28;20075;-64
2022/10/16 05:48:15;;;;;;;7.28;2.42;;;;;;;16.17;85.39;100502.88;4183264;28;20114;-64
2022/10/16 05:50:19;;;;;;;7.50;2.70;;;;;;;16.16;85.32;100514.25;4186006;28;20048;-64
2022/10/16 05:52:21;;;;;;;6.47;2.88;;;;;;;16.21;85.53;100511.59;4191580;28;20082;-64
2022/10/16 05:54:24;;;;;;;6.43;2.72;;;;;;;16.27;85.24;100503.69;4189799;28;20098;-63
2022/10/16 05:56:27;;;;;;;7.03;2.72;;;;;;;16.35;84.71;100500.97;4189544;28;20044;-64
2022/10/16 05:58:31;;;;;;;6.57;2.78;;;;;;;16.34;84.63;100493.97;4187078;28;20037;-64
2022/10/16 06:00:34;;;;;;;8.35;3.00;;;;;;;16.42;84.17;100500.03;4186931;28;20098;-63
2022/10/16 06:02:37;;;;;;;3.63;2.33;;;;;;;16.31;84.73;100505.41;4182816;28;20033;-63
2022/10/16 06:04:40;;;;;;;3.47;2.20;;;;;;;16.32;84.78;100506.25;4189123;28;20036;-63
2022/10/16 06:06:44;;;;;;;3.38;2.30;;;;;;;16.28;84.93;100518.53;4183925;28;20411;-63
2022/10/16 06:08:48;;;;;;;5.45;2.50;;;;;;;16.18;85.19;100519.50;4194283;28;20103;-63
2022/10/16 06:11:01;;;;;;;5.35;1.83;;;;;;;16.12;85.82;100524.78;4183554;28;20087;-63
2022/10/16 06:13:04;;;;;;;5.93;2.65;;;;;;;16.20;86.06;100526.44;4183044;28;20482;-63
2022/10/16 06:15:08;;;;;;;6.90;2.53;;;;;;;16.22;85.84;100529.94;4180737;28;20058;-63
2022/10/16 06:17:10;;;;;;;4.40;2.63;;;;;;;16.25;85.63;100541.28;4183597;28;20037;-63
2022/10/16 06:19:13;;;;;;;4.22;2.40;;;;;;;16.29;85.70;100536.00;4180694;28;20094;-63
2022/10/16 06:21:18;;;;;;;5.75;1.88;;;;;;;16.30;85.45;100535.13;4182793;28;20041;-63
2022/10/16 06:23:22;;;;;;;7.20;2.08;;;;;;;16.30;85.74;100529.88;4184972;28;20067;-63
2022/10/16 06:25:25;;;;;;;7.03;2.65;;;;;;;16.33;85.49;100524.59;4180949;28;20041;-63
2022/10/16 06:27:28;;;;;;;5.25;2.80;;;;;;;16.33;85.57;100527.22;4188880;28;20032;-63
2022/10/16 06:29:31;;;;;;;4.55;2.13;;;;;;;16.37;85.14;100530.72;4186833;28;20044;-63
2022/10/16 06:31:34;;;;;;;8.55;2.50;;;;;;;16.33;85.29;100524.59;4187305;28;20045;-63
2022/10/16 06:33:38;;;;;;;7.55;3.60;;;;;;;16.36;85.41;100542.09;4187115;28;20044;-63
2022/10/16 06:35:41;;;;;;;4.85;1.95;;;;;;;16.29;85.39;100541.25;4188809;28;20041;-63
2022/10/16 06:37:44;;;;;;;6.25;2.53;;;;;;;16.38;85.04;100537.69;4190116;28;20072;-63
2022/10/16 06:39:48;;;;;;;3.47;1.90;;;;;;;16.38;85.19;100543.81;4184357;28;20578;-63
2022/10/16 06:41:50;;;;;;;4.45;2.10;;;;;;;16.34;85.21;100546.44;4203465;28;20040;-63
2022/10/16 06:43:53;;;;;;;5.32;2.53;;;;;;;16.34;85.47;100547.34;4189506;28;20044;-63
2022/10/16 06:45:57;;;;;;;3.78;1.55;;;;;;;16.35;85.42;100559.59;4182901;28;20041;-63
2022/10/16 06:48:00;;;;;;;5.95;1.90;;;;;;;16.36;85.93;100560.44;4188552;28;20422;-63
2022/10/16 06:50:06;;;;;;;4.90;2.00;;;;;;;16.39;85.36;100563.03;4189324;28;20053;-63
2022/10/16 06:52:09;;;;;;;4.53;2.10;;;;;;;16.38;85.57;100559.56;4208334;28;20406;-63
2022/10/16 06:54:11;;;;;;;6.32;2.10;;;;;;;16.42;85.27;100572.66;4185797;28;20061;-63
2022/10/16 06:56:18;;;;;;;4.30;2.10;;;;;;;16.43;85.36;100582.25;4185134;28;20041;-63
2022/10/16 06:58:21;;;;;;;2.63;1.58;;;;;;;16.40;85.21;100577.91;4187478;28;20344;-63
2022/10/16 07:00:24;;;;;;;4.50;2.17;;;;;;;16.39;85.48;100584.88;4187526;28;20056;-63
2022/10/16 07:02:31;;;;;;;3.30;1.90;;;;;;;16.43;85.76;100583.13;4183091;28;20107;-63
2022/10/16 07:04:34;;;;;;;2.17;1.73;;;;;;;16.49;85.11;100575.19;4180550;28;20082;-63
2022/10/16 07:06:37;;;;;;;6.20;2.47;;;;;;;16.46;85.26;100577.84;4192853;28;20406;-63
2022/10/16 07:08:42;;;;;;;4.63;2.42;;;;;;;16.50;85.17;100589.19;4186971;28;20040;-63
2022/10/16 07:10:44;;;;;;;;;;;;;;;16.38;85.34;100596.28;4194413;28;20089;-63
2022/10/16 07:12:48;;;;;;;5.05;2.17;;;;;;;16.40;85.47;100599.75;4186810;28;20210;-63
2022/10/16 07:14:54;;;;;;;3.53;1.80;;;;;;;16.43;85.50;100606.75;4179067;28;20239;-62
2022/10/16 07:16:56;;;;;;;5.32;2.50;;;;;;;16.47;85.49;100611.09;4190120;28;20036;-62
2022/10/16 07:19:01;;;;;;;2.97;1.98;;;;;;;16.51;85.38;100617.19;4180866;28;20033;-62
2022/10/16 07:21:05;;;;;;;4.15;1.88;;;;;;;16.54;85.22;100612.78;4185826;28;20033;-62
2022/10/16 07:23:08;;;;;;;2.28;2.05;;;;;;;16.56;85.28;100620.66;4181535;28;20195;-62
2022/10/16 07:25:11;;;;;;;6.10;2.15;;;;;;;16.58;85.20;100613.63;4185472;28;20036;-62
2022/10/16 07:27:15;;;;;;;4.45;1.90;;;;;;;16.64;85.04;100613.56;4185083;28;20040;-62
2022/10/16 07:29:21;;;;;;;4.25;2.17;;;;;;;16.63;84.82;100611.84;4182104;28;20053;-62
2022/10/16 07:31:24;;;;;;;2.13;1.88;;;;;;;16.60;85.24;100622.34;4185624;28;20040;-62
2022/10/16 07:33:27;;;;;;;8.68;2.13;;;;;;;16.62;85.28;100633.72;4184831;28;20090;-63
2022/10/16 07:35:30;;;;;;;5.80;2.50;;;;;;;16.64;85.25;100624.06;4185867;28;20103;-63
2022/10/16 07:37:33;;;;;;;3.63;2.28;;;;;;;16.65;85.48;100644.19;4182096;28;20411;-63
2022/10/16 07:39:35;;;;;;;3.60;1.80;;;;;;;16.68;85.05;100638.91;4182410;28;20041;-64
2022/10/16 07:41:38;;;;;;;3.33;1.50;;;;;;;16.71;85.01;100638.03;4187855;28;20037;-64
2022/10/16 07:43:41;;;;;;;5.82;2.05;;;;;;;16.71;85.01;100644.13;4182397;28;20036;-63
2022/10/16 07:45:49;;;;;;;3.75;1.95;;;;;;;16.72;84.91;100645.88;4183924;28;20060;-63
2022/10/16 07:47:57;;;;;;;2.60;1.80;;;;;;;16.73;85.00;100654.63;4185230;28;20095;-63
2022/10/16 07:50:00;;;;;;;3.30;1.75;;;;;;;16.74;84.92;100643.25;4182597;28;20044;-63
2022/10/16 07:52:05;;;;;;;5.55;2.20;;;;;;;16.79;84.85;100637.94;4187065;28;20044;-63
2022/10/16 07:54:09;;;;;;;3.08;2.03;;;;;;;16.75;85.09;100645.84;4190532;28;20061;-63
2022/10/16 07:56:13;;;;;;;2.72;2.00;;;;;;;16.77;85.24;100642.34;4181148;28;20036;-62
2022/10/16 07:58:15;;;;;;;2.53;1.83;;;;;;;16.79;85.20;100640.56;4185886;28;20106;-63
2022/10/16 08:00:18;;;;;;;3.67;2.22;;;;;;;16.78;85.31;100651.94;4189657;28;20299;-67
2022/10/16 08:02:22;;;;;;;4.80;2.03;;;;;;;16.80;85.36;100643.19;4190779;28;20094;-66
2022/10/16 08:04:25;;;;;;;3.05;1.98;;;;;;;16.82;85.43;100649.31;4185139;28;20483;-68
2022/10/16 08:06:28;;;;;;;3.92;2.25;;;;;;;16.82;85.67;100651.94;4192335;28;20033;-66
2022/10/16 08:08:31;;;;;;;3.95;2.22;;;;;;;16.85;85.44;100651.91;4192665;28;20039;-66
2022/10/16 08:10:34;;;;;;;4.13;2.60;;;;;;;16.84;85.71;100652.78;4180794;28;20079;-66
2022/10/16 08:12:37;;;;;;;3.92;2.58;;;;;;;16.86;85.58;100663.28;4185781;28;20048;-63
2022/10/16 08:14:40;;;;;;;7.82;2.58;;;;;;;16.86;85.66;100668.53;4188928;28;20048;-62
2022/10/16 08:16:47;;;;;;;2.83;2.25;;;;;;;16.86;85.65;100658.88;4187484;28;20565;-62
2022/10/16 08:18:51;;;;;;;7.00;2.25;;;;;;;16.88;85.49;100657.16;4183087;28;20041;-61
2022/10/16 08:20:58;;;;;;;3.47;1.95;;;;;;;16.88;85.72;100661.53;4181901;28;20068;-64
2022/10/16 08:23:01;;;;;;;3.95;1.80;;;;;;;16.85;85.65;100667.66;4194480;28;20047;-62
2022/10/16 08:25:05;;;;;;;4.85;2.45;;;;;;;16.87;85.78;100678.16;4197135;28;20389;-63
2022/10/16 08:27:08;;;;;;;4.80;2.10;;;;;;;16.89;85.69;100676.41;4190770;28;20095;-61
2022/10/16 08:29:11;;;;;;;3.78;2.33;;;;;;;16.86;85.83;100681.66;4194253;28;20528;-62
2022/10/16 08:31:16;;;;;;;6.88;2.72;;;;;;;16.86;85.53;100676.41;4190933;28;20064;-64
2022/10/16 08:33:23;;;;;;;3.00;2.33;;;;;;;16.93;85.19;100668.47;4192053;28;20028;-67
2022/10/16 08:35:28;;;;;;;5.15;2.40;;;;;;;16.79;85.83;100675.56;4198974;28;20448;-68
2022/10/16 08:37:30;;;;;;;4.95;2.40;;;;;;;16.74;86.13;100672.97;4198631;28;20044;-64
2022/10/16 08:39:33;;;;;;;9.32;3.20;;;;;;;16.84;86.05;100686.91;4197405;28;20036;-68
2022/10/16 08:42:05;;;;;;;5.90;2.95;;;;;;;16.92;85.25;100686.88;4190757;28;20065;-63
2022/10/16 08:44:49;;;;;;;7.55;3.05;;;;;;;16.98;85.07;100696.47;4191314;28;20028;-63
2022/10/16 08:47:00;;;;;;;7.07;3.25;;;;;;;17.04;85.41;100741.94;4163787;28;20048;-64
2022/10/16 08:49:03;;;;;;;6.32;2.42;;;;;;;17.05;84.94;100787.47;4191450;28;20037;-65
2022/10/16 08:51:12;;;;;;;11.60;3.35;;;;;;;16.89;85.42;100799.84;4184662;28;20698;-68
2022/10/16 08:53:19;;;;;;;4.95;2.67;;;;;;;16.84;85.54;100783.22;4190590;28;20033;-67
2022/10/16 08:55:32;;;;;;;12.80;4.00;;;;;;;16.84;85.42;100777.97;4189721;28;20575;-67
2022/10/16 08:57:34;;;;;;;7.38;3.45;;;;;;;16.81;85.59;100757.84;4189225;28;20044;-70
2022/10/16 08:59:37;;;;;;;8.77;3.90;;;;;;;16.81;85.71;100743.84;4191807;28;20402;-66
2022/10/16 09:01:44;;;;;;;15.15;4.75;;;;;;;16.83;86.08;100749.94;4185213;28;20041;-68
2022/10/16 09:04:04;;;;;;;7.10;3.50;;;;;;;17.04;84.75;100728.81;4181468;28;20037;-71
2022/10/16 09:06:33;;;;;;;8.68;3.90;;;;;;;16.95;85.25;100739.38;4182035;28;20044;-66
2022/10/16 09:08:47;;;;;;;5.88;2.92;;;;;;;17.00;85.78;100737.59;4177323;28;20057;-66
2022/10/16 09:11:00;;;;;;;4.78;3.05;;;;;;;17.12;85.81;100736.63;4193933;28;20048;-67
2022/10/16 09:13:13;;;;;;;9.55;3.95;;;;;;;17.26;85.93;100749.66;4198335;28;20123;-68
2022/10/16 09:15:28;;;;;;;7.72;3.35;;;;;;;17.32;86.15;100748.72;4189603;28;20371;-65
2022/10/16 09:17:44;;;;;;;6.88;3.13;;;;;;;17.42;85.70;100764.41;4189019;28;20179;-66
2022/10/16 09:19:52;;;;;;;7.82;3.78;;;;;;;17.42;85.85;100764.41;4184103;28;20041;-66
2022/10/16 09:21:57;;;;;;;6.35;3.15;;;;;;;17.48;85.83;100755.59;4181983;28;20068;-66
2022/10/16 09:24:05;;;;;;;8.45;2.85;;;;;;;17.53;85.89;100769.53;4181339;28;20037;-65
2022/10/16 09:26:12;;;;;;;5.18;3.00;;;;;;;17.57;85.98;100762.50;4185940;28;20487;-64
2022/10/16 09:28:16;;;;;;;8.18;3.17;;;;;;;17.61;86.12;100766.84;4184568;28;20062;-66
2022/10/16 09:30:22;;;;;;;8.93;3.63;;;;;;;17.64;86.25;100764.19;4177989;28;20131;-66
2022/10/16 09:32:25;;;;;;;4.90;2.72;;;;;;;17.68;86.53;100765.88;4186627;28;20036;-68
2022/10/16 09:34:32;;;;;;;5.97;2.95;;;;;;;17.76;86.79;100761.44;4182166;28;20410;-68
2022/10/16 09:36:40;;;;;;;5.88;3.03;;;;;;;17.84;86.48;100760.47;4180341;28;20045;-67
2022/10/16 09:38:44;;;;;;;8.57;3.42;;;;;;;17.90;86.59;100761.31;4184460;28;20043;-66
2022/10/16 09:40:47;;;;;;;6.88;3.20;;;;;;;17.90;86.32;100757.81;4188955;28;20040;-64
2022/10/16 09:43:06;;;;;;;5.90;2.95;;;;;;;17.95;85.61;100756.88;4187300;28;20098;-68